LCA Airport Information

Details

Type: Airport (Aerodrome, Airfield)
Use: Public/Civil, International (customs port of entry)
Latitude: 34°52’30″N (34.875117)
Longitude: 33°37’29″E (33.624850)
Datum: WGS 1984
Elevation: 8 ft (2 m)
Variation: 5.08°E (WMM2015 magnetic declination)
0.09° annual change
Runways: 1
Longest: 9776 × 148 ft (2980 × 45 m), paved

Time

Timezone: UTC+2 (DST+3)
The time in Larnaca Airport is: 08:51

Weather

LCLK 170630Z 34006KT CAVOK 14/09 Q1020 NOSIG

NOTAMS

Larnaca airport related Notices to Airmen can be found at the FAA website.

Larnaca Airport Weather